createdAt,value
2023-02-11T00:00:41.828Z,2.00
2023-02-11T00:03:11.278Z,1.94
2023-02-11T00:05:39.309Z,1.82
2023-02-11T00:08:07.354Z,1.74
2023-02-11T00:10:35.340Z,1.74
2023-02-11T00:13:03.430Z,1.73
2023-02-11T00:15:31.564Z,1.63
2023-02-11T00:17:59.537Z,1.66
2023-02-11T00:20:28.908Z,1.67
2023-02-11T00:22:56.941Z,1.72
2023-02-11T00:25:25.210Z,1.70
2023-02-11T00:27:53.168Z,1.71
2023-02-11T00:30:21.290Z,1.72
2023-02-11T00:32:49.256Z,1.53
2023-02-11T00:35:17.706Z,1.59
2023-02-11T00:37:47.117Z,1.63
2023-02-11T00:40:16.105Z,1.60
2023-02-11T00:42:44.180Z,1.62
2023-02-11T00:45:12.309Z,1.57
2023-02-11T00:47:40.490Z,1.58
2023-02-11T00:50:08.617Z,1.49
2023-02-11T00:52:36.654Z,1.27
2023-02-11T00:55:06.514Z,1.47
2023-02-11T00:57:34.490Z,1.41
2023-02-11T01:00:02.448Z,1.42
2023-02-11T01:02:30.513Z,1.36
2023-02-11T01:04:59.835Z,1.37
2023-02-11T01:07:28.042Z,1.41
2023-02-11T01:09:56.036Z,1.37
2023-02-11T01:12:25.743Z,1.37
2023-02-11T01:14:53.707Z,1.33
2023-02-11T01:17:21.641Z,1.31
2023-02-11T01:19:49.671Z,1.33
2023-02-11T01:22:17.675Z,1.32
2023-02-11T01:24:46.304Z,1.23
2023-02-11T01:27:14.236Z,1.22
2023-02-11T01:29:43.560Z,1.20
2023-02-11T01:32:11.668Z,1.17
2023-02-11T01:34:39.797Z,1.13
2023-02-11T01:37:07.946Z,1.09
2023-02-11T01:39:36.492Z,1.06
2023-02-11T01:42:04.881Z,1.09
2023-02-11T01:44:34.994Z,1.10
2023-02-11T01:47:04.901Z,1.07
2023-02-11T01:49:35.288Z,1.08
2023-02-11T01:52:07.000Z,1.02
2023-02-11T01:54:56.516Z,1.05
2023-02-11T01:57:27.422Z,0.94
2023-02-11T02:00:04.791Z,0.94
2023-02-11T02:02:44.917Z,0.96
2023-02-11T02:05:24.231Z,0.97
2023-02-11T02:08:00.020Z,0.87
2023-02-11T02:10:29.987Z,0.89
2023-02-11T02:12:58.259Z,0.91
2023-02-11T02:15:29.846Z,0.76
2023-02-11T02:18:10.208Z,0.71
2023-02-11T02:21:09.089Z,0.80
2023-02-11T02:23:52.810Z,0.79
2023-02-11T02:27:02.653Z,0.71
2023-02-11T02:30:11.942Z,0.77
2023-02-11T02:33:21.414Z,0.82
2023-02-11T02:35:59.609Z,0.78
2023-02-11T02:38:32.709Z,0.74
2023-02-11T02:41:05.268Z,0.70
2023-02-11T02:43:35.331Z,0.69
2023-02-11T02:46:14.832Z,0.71
2023-02-11T02:48:45.443Z,0.66
2023-02-11T02:51:28.925Z,0.70
2023-02-11T02:54:13.532Z,0.73
2023-02-11T02:56:47.793Z,0.70
2023-02-11T02:59:29.889Z,0.61
2023-02-11T03:02:07.643Z,0.60
2023-02-11T03:04:45.469Z,0.43
2023-02-11T03:07:24.051Z,0.46
2023-02-11T03:09:59.604Z,0.48
2023-02-11T03:12:31.185Z,0.42
2023-02-11T03:15:02.520Z,0.52
2023-02-11T03:17:33.047Z,0.51
2023-02-11T03:20:04.703Z,0.49
2023-02-11T03:22:38.730Z,0.55
2023-02-11T03:25:07.541Z,0.51
2023-02-11T03:27:42.601Z,0.41
2023-02-11T03:30:17.528Z,0.39
2023-02-11T03:32:52.376Z,0.38
2023-02-11T03:35:25.632Z,0.28
2023-02-11T03:37:57.739Z,0.26
2023-02-11T03:40:29.044Z,0.26
2023-02-11T03:43:00.666Z,0.27
2023-02-11T03:45:29.765Z,0.01
2023-02-11T03:48:05.953Z,0.10
2023-02-11T03:50:37.413Z,0.17
2023-02-11T03:53:06.617Z,0.24
2023-02-11T03:55:38.007Z,0.33
2023-02-11T03:58:06.047Z,0.34
2023-02-11T04:00:35.249Z,0.32
2023-02-11T04:03:03.661Z,0.32
2023-02-11T04:05:31.923Z,0.27
2023-02-11T04:08:01.353Z,0.19
2023-02-11T04:10:29.501Z,0.21
2023-02-11T04:12:57.466Z,0.22
2023-02-11T04:15:25.652Z,0.24
2023-02-11T04:17:53.670Z,0.25
2023-02-11T04:20:21.827Z,0.25
2023-02-11T04:22:49.835Z,0.17
2023-02-11T04:25:19.244Z,0.18
2023-02-11T04:27:47.165Z,0.15
2023-02-11T04:30:15.428Z,0.21
2023-02-11T04:32:43.529Z,0.20
2023-02-11T04:35:11.582Z,0.12
2023-02-11T04:37:39.569Z,0.10
2023-02-11T04:40:08.762Z,0.09
2023-02-11T04:42:38.092Z,-0.11
2023-02-11T04:45:07.263Z,-0.11
2023-02-11T04:47:36.223Z,-0.16
2023-02-11T04:50:04.218Z,-0.09
2023-02-11T04:52:32.244Z,-0.19
2023-02-11T04:55:00.218Z,-0.13
2023-02-11T04:57:28.161Z,-0.21
2023-02-11T04:59:57.482Z,-0.14
2023-02-11T05:02:25.536Z,-0.18
2023-02-11T05:04:53.487Z,-0.13
2023-02-11T05:07:21.512Z,-0.04
2023-02-11T05:09:49.448Z,-0.08
2023-02-11T05:12:17.416Z,-0.09
2023-02-11T05:14:45.442Z,-0.11
2023-02-11T05:17:14.853Z,-0.11
2023-02-11T05:19:43.024Z,-0.13
2023-02-11T05:22:11.010Z,-0.08
2023-02-11T05:24:39.106Z,-0.14
2023-02-11T05:27:07.049Z,-0.11
2023-02-11T05:29:34.976Z,-0.16
2023-02-11T05:32:02.979Z,-0.15
2023-02-11T05:34:32.378Z,-0.13
2023-02-11T05:37:00.507Z,-0.11
2023-02-11T05:39:28.634Z,-0.19
2023-02-11T05:41:56.715Z,-0.16
2023-02-11T05:44:24.738Z,-0.17
2023-02-11T05:46:52.753Z,-0.18
2023-02-11T05:49:20.993Z,-0.20
2023-02-11T05:51:50.426Z,-0.23
2023-02-11T05:54:18.405Z,-0.27
2023-02-11T05:56:46.484Z,-0.30
2023-02-11T05:59:15.412Z,-0.37
2023-02-11T06:01:43.445Z,-0.33
2023-02-11T06:04:11.450Z,-0.33
2023-02-11T06:06:39.504Z,-0.35
2023-02-11T06:09:08.882Z,-0.34
2023-02-11T06:11:36.832Z,-0.48
2023-02-11T06:14:05.107Z,-0.41
2023-02-11T06:16:33.040Z,-0.39
2023-02-11T06:19:00.967Z,-0.37
2023-02-11T06:21:43.013Z,-0.41
2023-02-11T06:24:13.520Z,-0.43
2023-02-11T06:26:41.644Z,-0.36
2023-02-11T06:29:09.934Z,-0.38
2023-02-11T06:31:39.103Z,-0.43
2023-02-11T06:34:07.341Z,-0.45
2023-02-11T06:36:35.395Z,-0.56
2023-02-11T06:39:03.409Z,-0.58
2023-02-11T06:41:32.858Z,-0.55
2023-02-11T06:44:00.789Z,-0.71
2023-02-11T06:46:28.834Z,-0.67
2023-02-11T06:48:57.198Z,-0.72
2023-02-11T06:51:25.517Z,-0.69
2023-02-11T06:53:53.520Z,-0.82
2023-02-11T06:56:23.368Z,-0.80
2023-02-11T06:58:55.971Z,-0.72
2023-02-11T07:01:25.434Z,-0.79
2023-02-11T07:03:53.914Z,-0.79
2023-02-11T07:06:23.883Z,-0.85
2023-02-11T07:08:51.870Z,-0.79
2023-02-11T07:11:24.388Z,-0.80
2023-02-11T07:13:54.565Z,-0.71
2023-02-11T07:16:22.807Z,-0.74
2023-02-11T07:18:51.077Z,-0.71
2023-02-11T07:21:21.442Z,-0.67
2023-02-11T07:23:49.778Z,-0.76
2023-02-11T07:26:20.020Z,-0.77
2023-02-11T07:28:48.147Z,-0.83
2023-02-11T07:31:19.736Z,-0.67
2023-02-11T07:33:48.143Z,-0.53
2023-02-11T07:36:17.848Z,-0.43
2023-02-11T07:38:46.015Z,-0.38
2023-02-11T07:41:15.890Z,-0.36
2023-02-11T07:43:44.171Z,-0.23
2023-02-11T07:46:14.744Z,-0.12
2023-02-11T07:48:44.205Z,-0.01
2023-02-11T07:51:14.437Z,0.12
2023-02-11T07:53:42.481Z,0.21
2023-02-11T07:56:11.537Z,0.31
2023-02-11T07:58:42.170Z,0.43
2023-02-11T08:01:12.226Z,0.55
2023-02-11T08:03:42.941Z,0.65
2023-02-11T08:06:14.137Z,0.71
2023-02-11T08:08:42.910Z,0.86
2023-02-11T08:11:12.838Z,0.88
2023-02-11T08:13:41.012Z,0.96
2023-02-11T08:16:10.044Z,1.04
2023-02-11T08:18:38.046Z,0.99
2023-02-11T08:21:07.709Z,1.05
2023-02-11T08:23:37.476Z,1.09
2023-02-11T08:26:07.238Z,1.22
2023-02-11T08:28:37.066Z,1.30
2023-02-11T08:31:07.640Z,1.43
2023-02-11T08:33:36.030Z,1.63
2023-02-11T08:36:09.806Z,1.82
2023-02-11T08:38:39.499Z,2.07
2023-02-11T08:41:07.984Z,2.21
2023-02-11T08:43:36.031Z,2.34
2023-02-11T08:46:04.666Z,2.38
2023-02-11T08:48:32.661Z,2.51
2023-02-11T08:51:00.822Z,2.57
2023-02-11T08:53:28.794Z,2.65
2023-02-11T08:55:58.307Z,2.62
2023-02-11T08:58:26.244Z,2.74
2023-02-11T09:00:54.434Z,2.95
2023-02-11T09:03:22.593Z,2.92
2023-02-11T09:05:53.473Z,3.13
2023-02-11T09:08:22.139Z,3.27
2023-02-11T09:10:50.355Z,3.32
2023-02-11T09:13:19.921Z,3.48
2023-02-11T09:15:48.010Z,3.56
2023-02-11T09:18:16.030Z,3.58
2023-02-11T09:20:44.000Z,3.61
2023-02-11T09:23:12.727Z,3.72
2023-02-11T09:25:41.219Z,3.81
2023-02-11T09:28:09.816Z,3.94
2023-02-11T09:30:40.010Z,3.95
2023-02-11T09:33:08.074Z,4.21
2023-02-11T09:35:36.022Z,4.39
2023-02-11T09:38:04.194Z,4.53
2023-02-11T09:40:32.346Z,4.73
2023-02-11T09:43:05.365Z,4.88
2023-02-11T09:45:33.713Z,4.99
2023-02-11T09:48:06.795Z,5.10
2023-02-11T09:50:37.506Z,5.30
2023-02-11T09:53:11.115Z,5.47
2023-02-11T09:55:42.837Z,5.64
2023-02-11T09:58:15.421Z,5.81
2023-02-11T10:00:49.629Z,5.85
2023-02-11T10:03:39.133Z,6.05
2023-02-11T10:06:20.075Z,6.21
2023-02-11T10:09:00.495Z,6.41
2023-02-11T10:11:37.819Z,6.58
2023-02-11T10:14:22.738Z,6.66
2023-02-11T10:17:05.374Z,6.81
2023-02-11T10:19:50.156Z,6.94
2023-02-11T10:22:23.814Z,7.04
2023-02-11T10:24:55.173Z,7.12
2023-02-11T10:27:29.176Z,7.19
2023-02-11T10:30:03.614Z,7.36
2023-02-11T10:32:40.422Z,7.46
2023-02-11T10:35:18.108Z,7.53
2023-02-11T10:37:46.114Z,7.53
2023-02-11T10:40:16.249Z,7.73
2023-02-11T10:42:47.765Z,7.85
2023-02-11T10:45:20.357Z,7.98
2023-02-11T10:47:48.326Z,8.09
2023-02-11T10:50:24.391Z,8.20
2023-02-11T10:52:52.630Z,8.30
2023-02-11T10:55:22.021Z,8.32
2023-02-11T10:57:57.170Z,8.37
2023-02-11T11:00:38.838Z,8.47
2023-02-11T11:03:17.685Z,8.54
2023-02-11T11:05:51.550Z,8.63
2023-02-11T11:08:20.222Z,8.76
2023-02-11T11:10:49.922Z,8.89
2023-02-11T11:13:30.442Z,8.98
2023-02-11T11:16:20.344Z,9.09
2023-02-11T11:18:49.856Z,9.19
2023-02-11T11:21:22.869Z,9.28
2023-02-11T11:23:55.352Z,9.34
2023-02-11T11:26:24.126Z,9.45
2023-02-11T11:28:56.537Z,9.55
2023-02-11T11:31:27.865Z,9.61
2023-02-11T11:33:59.170Z,9.70
2023-02-11T11:36:36.557Z,9.74
2023-02-11T11:39:20.485Z,9.85
2023-02-11T11:41:59.058Z,9.64
2023-02-11T11:44:32.582Z,9.20
2023-02-11T11:47:26.559Z,9.43
2023-02-11T11:50:13.115Z,9.39
2023-02-11T11:52:47.690Z,9.50
2023-02-11T11:55:20.656Z,9.88
2023-02-11T11:57:49.304Z,10.04
2023-02-11T12:00:22.169Z,9.97
2023-02-11T12:03:26.417Z,10.19
2023-02-11T12:06:13.805Z,10.40
2023-02-11T12:08:53.579Z,10.40
2023-02-11T12:11:27.225Z,10.37
2023-02-11T12:14:07.324Z,10.37
2023-02-11T12:16:45.773Z,10.59
2023-02-11T12:19:52.679Z,10.75
2023-02-11T12:22:34.335Z,10.87
2023-02-11T12:25:24.039Z,10.93
2023-02-11T12:27:58.870Z,10.95
2023-02-11T12:30:49.804Z,11.07
2023-02-11T12:33:32.692Z,11.21
2023-02-11T12:36:05.521Z,11.39
2023-02-11T12:38:47.219Z,11.41
2023-02-11T12:41:53.507Z,11.38
2023-02-11T12:44:32.290Z,11.26
2023-02-11T12:47:10.250Z,11.33
2023-02-11T12:50:03.010Z,11.52
2023-02-11T12:52:45.893Z,11.59
2023-02-11T12:55:21.796Z,11.68
2023-02-11T12:57:52.225Z,11.74
2023-02-11T13:00:24.775Z,11.78
2023-02-11T14:50:59.429Z,14.33
2023-02-11T14:53:29.693Z,14.12
2023-02-11T14:55:57.730Z,13.96
2023-02-11T14:58:27.708Z,13.73
2023-02-11T15:00:58.953Z,13.65
2023-02-11T15:03:33.244Z,13.58
2023-02-11T15:06:06.449Z,13.70
2023-02-11T15:08:38.263Z,13.76
2023-02-11T15:11:12.637Z,13.73
2023-02-11T15:13:47.464Z,13.74
2023-02-11T15:16:19.821Z,13.72
2023-02-11T15:18:51.840Z,13.63
2023-02-11T15:21:26.708Z,13.66
2023-02-11T15:24:00.413Z,13.68
2023-02-11T15:26:28.744Z,13.63
2023-02-11T15:28:56.803Z,13.54
2023-02-11T15:31:27.826Z,13.61
2023-02-11T15:33:56.017Z,13.58
2023-02-11T15:36:33.146Z,13.57
2023-02-11T15:39:20.354Z,13.49
2023-02-11T15:41:48.370Z,13.34
2023-02-11T15:44:29.212Z,13.43
2023-02-11T15:46:57.670Z,13.39
2023-02-11T15:49:26.249Z,13.37
2023-02-11T15:51:58.908Z,13.32
2023-02-11T15:54:30.056Z,13.17
2023-02-11T15:57:03.464Z,13.02
2023-02-11T15:59:35.426Z,13.04
2023-02-11T16:02:09.647Z,13.07
2023-02-11T16:04:38.582Z,13.03
2023-02-11T16:07:08.040Z,13.01
2023-02-11T16:09:37.696Z,12.92
2023-02-11T16:12:23.810Z,12.81
2023-02-11T16:14:51.793Z,12.69
2023-02-11T16:17:27.071Z,12.66
2023-02-11T16:19:55.973Z,12.57
2023-02-11T16:22:28.162Z,12.52
2023-02-11T16:24:58.737Z,12.45
2023-02-11T16:27:30.502Z,12.50
2023-02-11T16:29:59.526Z,12.43
2023-02-11T16:32:29.452Z,12.35
2023-02-11T16:35:00.867Z,12.28
2023-02-11T16:37:30.551Z,12.10
2023-02-11T16:39:58.642Z,11.99
2023-02-11T16:42:26.933Z,11.83
2023-02-11T16:44:55.139Z,11.84
2023-02-11T16:47:26.023Z,12.02
2023-02-11T16:49:55.135Z,12.06
2023-02-11T16:52:23.585Z,11.93
2023-02-11T16:54:53.029Z,11.95
2023-02-11T16:57:23.281Z,11.75
2023-02-11T16:59:52.260Z,11.60
2023-02-11T17:02:24.380Z,11.57
2023-02-11T17:04:54.501Z,11.41
2023-02-11T17:07:23.183Z,11.33
2023-02-11T17:09:53.068Z,11.22
2023-02-11T17:12:21.585Z,11.07
2023-02-11T17:14:49.562Z,10.89
2023-02-11T17:17:17.573Z,10.76
2023-02-11T17:19:47.836Z,10.63
2023-02-11T17:22:15.981Z,10.52
2023-02-11T17:24:43.933Z,10.39
2023-02-11T17:27:13.958Z,10.26
2023-02-11T17:29:42.116Z,10.11
2023-02-11T17:32:10.166Z,9.96
2023-02-11T17:34:39.242Z,9.84
2023-02-11T17:37:09.354Z,9.71
2023-02-11T17:39:37.888Z,9.55
2023-02-11T17:42:07.252Z,9.40
2023-02-11T17:44:37.341Z,9.24
2023-02-11T17:47:05.449Z,9.10
2023-02-11T17:49:33.545Z,9.01
2023-02-11T17:52:01.509Z,8.88
2023-02-11T17:54:29.682Z,8.79
2023-02-11T17:57:00.075Z,8.66
2023-02-11T17:59:31.717Z,8.60
2023-02-11T18:02:01.057Z,8.51
2023-02-11T18:04:29.342Z,8.39
2023-02-11T18:06:57.679Z,8.24
2023-02-11T18:09:26.153Z,8.16
2023-02-11T18:11:54.169Z,8.14
2023-02-11T18:14:23.225Z,8.02
2023-02-11T18:16:51.994Z,7.89
2023-02-11T18:19:22.199Z,7.82
2023-02-11T18:21:51.069Z,7.80
2023-02-11T18:24:19.755Z,7.71
2023-02-11T18:26:47.773Z,7.64
2023-02-11T18:29:15.774Z,7.52
2023-02-11T18:31:43.769Z,7.47
2023-02-11T18:34:12.432Z,7.38
2023-02-11T18:36:41.808Z,7.42
2023-02-11T18:39:10.256Z,7.35
2023-02-11T18:41:40.104Z,7.32
2023-02-11T18:44:08.330Z,7.20
2023-02-11T18:46:36.374Z,7.10
2023-02-11T18:49:04.487Z,7.03
2023-02-11T18:51:32.670Z,6.97
2023-02-11T18:54:02.276Z,6.88
2023-02-11T18:56:30.424Z,6.81
2023-02-11T18:59:01.307Z,6.73
2023-02-11T19:01:31.099Z,6.67
2023-02-11T19:04:02.863Z,6.65
2023-02-11T19:06:32.972Z,6.59
2023-02-11T19:09:04.966Z,6.58
2023-02-11T19:11:50.289Z,6.60
2023-02-11T19:14:21.184Z,6.57
2023-02-11T19:16:50.700Z,6.53
2023-02-11T19:19:20.085Z,6.53
2023-02-11T19:21:48.859Z,6.49
2023-02-11T19:24:20.046Z,6.36
2023-02-11T19:26:49.737Z,6.29
2023-02-11T19:29:18.384Z,6.27
2023-02-11T19:31:46.834Z,6.24
2023-02-11T19:34:16.526Z,6.16
2023-02-11T19:36:44.963Z,6.11
2023-02-11T19:39:13.350Z,6.04
2023-02-11T19:41:42.854Z,6.00
2023-02-11T19:44:11.135Z,5.97
2023-02-11T19:46:40.957Z,5.94
2023-02-11T19:49:09.986Z,5.92
2023-02-11T19:51:39.319Z,5.88
2023-02-11T19:54:08.231Z,5.73
2023-02-11T19:56:38.006Z,5.59
2023-02-11T19:59:09.095Z,5.54
2023-02-11T20:01:38.024Z,5.56
2023-02-11T20:04:06.408Z,5.62
2023-02-11T20:06:35.560Z,5.62
2023-02-11T20:09:06.572Z,5.60
2023-02-11T20:11:35.781Z,5.55
2023-02-11T20:14:04.516Z,5.51
2023-02-11T20:16:47.430Z,5.48
2023-02-11T20:19:18.508Z,5.49
2023-02-11T20:21:48.176Z,5.42
2023-02-11T20:24:16.401Z,5.36
2023-02-11T20:26:46.528Z,5.29
2023-02-11T20:29:15.318Z,5.01
2023-02-11T20:31:44.903Z,4.85
2023-02-11T20:34:13.093Z,4.83
2023-02-11T20:36:42.123Z,4.62
2023-02-11T20:39:17.187Z,4.57
2023-02-11T20:41:46.572Z,4.47
2023-02-11T20:44:14.811Z,4.51
2023-02-11T20:46:47.144Z,4.60
2023-02-11T20:49:16.735Z,4.66
2023-02-11T20:51:45.078Z,4.66
2023-02-11T20:54:14.392Z,4.58
2023-02-11T20:56:43.064Z,4.47
2023-02-11T20:59:14.303Z,4.42
2023-02-11T21:01:46.365Z,4.49
2023-02-11T21:04:16.517Z,4.44
2023-02-11T21:06:47.323Z,4.41
2023-02-11T21:09:17.628Z,4.33
2023-02-11T21:11:45.565Z,4.18
2023-02-11T21:14:14.227Z,4.25
2023-02-11T21:16:42.701Z,4.37
2023-02-11T21:19:12.714Z,4.48
2023-02-11T21:21:41.235Z,4.48
2023-02-11T21:24:11.570Z,4.48
2023-02-11T21:26:40.027Z,4.50
2023-02-11T21:29:09.006Z,4.47
2023-02-11T21:31:37.924Z,4.49
2023-02-11T21:34:06.647Z,4.40
2023-02-11T21:36:36.163Z,4.43
2023-02-11T21:39:05.635Z,4.42
2023-02-11T21:41:33.920Z,4.42
2023-02-11T21:44:02.011Z,4.39
2023-02-11T21:46:30.868Z,4.42
2023-02-11T21:49:00.437Z,4.29
2023-02-11T21:51:28.717Z,4.21
2023-02-11T21:53:59.805Z,4.04
2023-02-11T21:56:28.518Z,4.04
2023-02-11T21:58:58.444Z,4.14
2023-02-11T22:01:28.718Z,4.18
2023-02-11T22:03:57.210Z,4.11
2023-02-11T22:06:27.857Z,4.11
2023-02-11T22:08:57.331Z,4.10
2023-02-11T22:11:25.349Z,4.07
2023-02-11T22:13:56.465Z,3.79
2023-02-11T22:16:25.152Z,3.85
2023-02-11T22:18:53.315Z,3.91
2023-02-11T22:21:23.123Z,3.90
2023-02-11T22:23:52.189Z,3.85
2023-02-11T22:26:23.449Z,3.83
2023-02-11T22:28:52.474Z,3.81
2023-02-11T22:31:22.401Z,3.76
2023-02-11T22:33:51.031Z,3.75
2023-02-11T22:36:21.354Z,3.75
2023-02-11T22:38:49.820Z,3.67
2023-02-11T22:41:18.518Z,3.60
2023-02-11T22:43:48.423Z,3.57
2023-02-11T22:46:18.968Z,3.55
2023-02-11T22:48:47.991Z,3.45
2023-02-11T22:51:19.484Z,3.38
2023-02-11T22:53:50.949Z,3.40
2023-02-11T22:56:19.439Z,3.43
2023-02-11T22:58:49.955Z,3.40
2023-02-11T23:01:18.864Z,3.42
2023-02-11T23:03:46.946Z,3.35
2023-02-11T23:06:15.072Z,3.33
2023-02-11T23:08:43.373Z,3.27
2023-02-11T23:11:14.297Z,3.19
2023-02-11T23:13:43.038Z,3.22
2023-02-11T23:16:14.355Z,3.17
2023-02-11T23:18:44.155Z,3.11
2023-02-11T23:21:16.065Z,3.10
2023-02-11T23:23:45.048Z,3.02
2023-02-11T23:26:14.493Z,2.93
2023-02-11T23:28:46.094Z,2.89
2023-02-11T23:31:18.031Z,2.95
2023-02-11T23:33:47.166Z,2.97
2023-02-11T23:36:15.851Z,3.01
2023-02-11T23:38:44.514Z,3.02
2023-02-11T23:41:12.930Z,3.00
2023-02-11T23:43:41.112Z,2.98
2023-02-11T23:46:09.946Z,2.98
2023-02-11T23:48:40.528Z,2.97
2023-02-11T23:51:09.730Z,2.85
2023-02-11T23:53:38.203Z,2.85
2023-02-11T23:56:08.605Z,2.71
2023-02-11T23:58:36.921Z,2.56
